createdAt,value
2018-04-07T00:01:56.295Z,2.90
2018-04-07T00:04:22.566Z,2.83
2018-04-07T00:06:48.873Z,2.50
2018-04-07T00:09:15.197Z,2.92
2018-04-07T00:11:41.481Z,2.83
2018-04-07T00:14:07.800Z,2.78
2018-04-07T00:16:34.070Z,3.22
2018-04-07T00:19:00.395Z,3.30
2018-04-07T00:21:27.001Z,3.22
2018-04-07T00:23:53.428Z,2.95
2018-04-07T00:26:19.728Z,2.60
2018-04-07T00:28:46.061Z,2.70
2018-04-07T00:31:12.394Z,3.15
2018-04-07T00:33:38.658Z,3.25
2018-04-07T00:36:04.990Z,3.12
2018-04-07T00:38:31.302Z,3.15
2018-04-07T00:40:57.696Z,2.72
2018-04-07T00:43:25.574Z,3.30
2018-04-07T00:45:51.926Z,2.65
2018-04-07T00:48:18.360Z,3.55
2018-04-07T00:50:44.702Z,3.10
2018-04-07T00:53:11.066Z,2.83
2018-04-07T00:55:37.455Z,2.72
2018-04-07T00:58:03.774Z,2.92
2018-04-07T01:00:30.859Z,2.70
2018-04-07T01:02:57.269Z,3.40
2018-04-07T01:05:23.661Z,3.00
2018-04-07T01:07:50.042Z,3.30
2018-04-07T01:10:16.350Z,2.95
2018-04-07T01:12:42.650Z,2.90
2018-04-07T01:15:08.958Z,2.45
2018-04-07T01:17:36.017Z,2.92
2018-04-07T01:20:02.351Z,3.20
2018-04-07T01:22:28.783Z,2.92
2018-04-07T01:24:55.990Z,3.20
2018-04-07T01:27:22.306Z,2.10
2018-04-07T01:29:48.600Z,3.00
2018-04-07T01:32:14.944Z,2.78
2018-04-07T01:34:41.506Z,2.70
2018-04-07T01:37:07.978Z,2.90
2018-04-07T01:39:35.106Z,2.60
2018-04-07T01:42:01.438Z,2.67
2018-04-07T01:44:28.508Z,3.03
2018-04-07T01:46:54.865Z,3.25
2018-04-07T01:49:21.162Z,2.97
2018-04-07T01:51:48.207Z,3.08
2018-04-07T01:54:15.268Z,3.12
2018-04-07T01:56:41.550Z,3.12
2018-04-07T01:59:07.914Z,2.90
2018-04-07T02:01:34.190Z,2.70
2018-04-07T02:04:00.610Z,3.33
2018-04-07T02:06:27.101Z,3.85
2018-04-07T02:08:53.439Z,2.87
2018-04-07T02:11:19.772Z,3.28
2018-04-07T02:13:46.862Z,2.53
2018-04-07T02:16:13.193Z,3.17
2018-04-07T02:18:39.481Z,2.72
2018-04-07T02:21:05.765Z,3.22
2018-04-07T02:23:32.778Z,2.75
2018-04-07T02:25:59.101Z,3.40
2018-04-07T02:28:25.501Z,3.35
2018-04-07T02:30:51.777Z,2.95
2018-04-07T02:33:18.062Z,3.17
2018-04-07T02:35:44.378Z,3.00
2018-04-07T02:38:11.435Z,3.60
2018-04-07T02:40:37.678Z,4.12
2018-04-07T02:43:03.938Z,3.35
2018-04-07T02:45:30.242Z,3.67
2018-04-07T02:47:57.328Z,4.00
2018-04-07T02:50:23.643Z,4.25
2018-04-07T02:52:49.915Z,3.60
2018-04-07T02:55:16.211Z,3.65
2018-04-07T02:57:42.508Z,4.25
2018-04-07T03:00:09.048Z,4.47
2018-04-07T03:02:35.302Z,4.10
2018-04-07T03:05:01.562Z,3.42
2018-04-07T03:07:27.859Z,3.28
2018-04-07T03:09:54.254Z,3.87
2018-04-07T03:12:20.596Z,4.05
2018-04-07T03:14:47.681Z,3.80
2018-04-07T03:17:14.848Z,4.20
2018-04-07T03:19:40.932Z,3.60
2018-04-07T03:22:07.202Z,4.10
2018-04-07T03:24:34.199Z,4.47
2018-04-07T03:27:00.518Z,4.95
2018-04-07T03:29:27.585Z,3.85
2018-04-07T03:31:53.656Z,3.80
2018-04-07T03:34:19.915Z,3.45
2018-04-07T03:36:46.144Z,4.00
2018-04-07T03:39:12.394Z,4.47
2018-04-07T03:41:38.658Z,3.80
2018-04-07T03:44:05.661Z,3.83
2018-04-07T03:46:31.903Z,4.65
2018-04-07T03:48:58.209Z,4.78
2018-04-07T03:51:24.616Z,4.53
2018-04-07T03:53:50.890Z,3.92
2018-04-07T03:56:17.167Z,4.53
2018-04-07T03:58:43.429Z,4.15
2018-04-07T04:01:09.723Z,3.95
2018-04-07T04:03:35.986Z,4.57
2018-04-07T04:06:02.302Z,4.78
2018-04-07T04:08:29.419Z,4.28
2018-04-07T04:10:55.764Z,4.75
2018-04-07T04:13:22.152Z,4.50
2018-04-07T04:15:49.279Z,4.07
2018-04-07T04:18:15.686Z,5.32
2018-04-07T04:20:41.821Z,4.65
2018-04-07T04:23:08.148Z,4.90
2018-04-07T04:25:34.434Z,4.75
2018-04-07T04:28:00.805Z,5.15
2018-04-07T04:30:27.891Z,4.70
2018-04-07T04:32:54.039Z,4.95
2018-04-07T04:35:20.311Z,4.50
2018-04-07T04:37:46.545Z,4.65
2018-04-07T04:40:12.822Z,4.93
2018-04-07T04:42:39.817Z,4.95
2018-04-07T04:45:06.813Z,4.60
2018-04-07T04:47:33.566Z,4.50
2018-04-07T04:50:00.021Z,5.07
2018-04-07T04:52:26.338Z,4.70
2018-04-07T04:54:53.374Z,4.95
2018-04-07T04:57:19.442Z,4.95
2018-04-07T04:59:45.547Z,4.72
2018-04-07T05:02:11.822Z,4.30
2018-04-07T05:04:38.100Z,3.90
2018-04-07T05:07:04.380Z,4.40
2018-04-07T05:09:30.655Z,4.87
2018-04-07T05:11:57.699Z,3.60
2018-04-07T05:14:23.806Z,4.97
2018-04-07T05:16:49.894Z,4.55
2018-04-07T05:19:16.200Z,4.62
2018-04-07T05:21:42.479Z,4.35
2018-04-07T05:24:08.745Z,5.07
2018-04-07T05:26:35.014Z,5.20
2018-04-07T05:29:01.338Z,4.95
2018-04-07T05:31:27.749Z,4.57
2018-04-07T05:33:54.094Z,4.82
2018-04-07T05:36:20.417Z,4.70
2018-04-07T05:38:46.746Z,4.85
2018-04-07T05:41:13.207Z,5.20
2018-04-07T05:43:39.494Z,4.90
2018-04-07T05:46:06.502Z,4.85
2018-04-07T05:48:32.763Z,4.43
2018-04-07T05:50:59.820Z,4.22
2018-04-07T05:53:26.083Z,4.80
2018-04-07T05:55:52.214Z,4.95
2018-04-07T05:58:18.497Z,4.35
2018-04-07T06:00:44.811Z,4.37
2018-04-07T06:03:14.410Z,4.68
2018-04-07T06:05:40.750Z,5.18
2018-04-07T06:08:07.790Z,4.50
2018-04-07T06:10:34.054Z,3.97
2018-04-07T06:13:00.477Z,4.87
2018-04-07T06:15:26.890Z,5.35
2018-04-07T06:17:54.104Z,6.30
2018-04-07T06:20:20.413Z,5.18
2018-04-07T06:22:46.680Z,4.80
2018-04-07T06:25:13.794Z,4.40
2018-04-07T06:27:39.931Z,4.35
2018-04-07T06:30:06.037Z,5.15
2018-04-07T06:32:33.046Z,4.45
2018-04-07T06:34:59.398Z,5.43
2018-04-07T06:37:26.518Z,4.60
2018-04-07T06:39:52.629Z,5.00
2018-04-07T06:42:18.918Z,4.78
2018-04-07T06:44:45.258Z,4.80
2018-04-07T06:47:11.603Z,4.55
2018-04-07T06:49:37.883Z,5.03
2018-04-07T06:52:04.259Z,5.50
2018-04-07T06:54:30.622Z,4.80
2018-04-07T06:56:57.045Z,4.62
2018-04-07T06:59:23.385Z,4.83
2018-04-07T07:01:50.341Z,4.73
2018-04-07T07:04:17.377Z,5.00
2018-04-07T07:06:43.538Z,4.77
2018-04-07T07:09:09.838Z,4.60
2018-04-07T07:11:36.138Z,5.40
2018-04-07T07:14:02.434Z,4.80
2018-04-07T07:16:28.862Z,4.30
2018-04-07T07:18:55.056Z,4.73
2018-04-07T07:21:21.256Z,4.53
2018-04-07T07:23:47.363Z,4.30
2018-04-07T07:26:13.657Z,4.63
2018-04-07T07:28:39.973Z,4.93
2018-04-07T07:31:07.111Z,4.37
2018-04-07T07:33:33.206Z,4.97
2018-04-07T07:35:59.420Z,5.03
2018-04-07T07:38:25.812Z,4.83
2018-04-07T07:40:51.975Z,4.03
2018-04-07T07:43:18.159Z,4.70
2018-04-07T07:45:44.244Z,4.50
2018-04-07T07:48:10.339Z,4.60
2018-04-07T07:50:37.333Z,4.33
2018-04-07T07:53:03.493Z,4.50
2018-04-07T07:55:30.379Z,4.20
2018-04-07T07:57:56.498Z,4.37
2018-04-07T08:00:23.600Z,4.27
2018-04-07T08:02:49.787Z,4.20
2018-04-07T08:05:16.635Z,4.47
2018-04-07T08:07:43.512Z,3.90
2018-04-07T08:10:09.655Z,4.20
2018-04-07T08:12:35.770Z,4.37
2018-04-07T08:15:01.914Z,4.37
2018-04-07T08:17:29.055Z,4.70
2018-04-07T08:19:55.307Z,4.67
2018-04-07T08:22:22.166Z,5.10
2018-04-07T08:24:48.996Z,4.00
2018-04-07T08:27:15.123Z,4.40
2018-04-07T08:29:41.190Z,4.57
2018-04-07T08:32:08.328Z,3.77
2018-04-07T08:34:34.425Z,4.73
2018-04-07T08:37:00.826Z,4.53
2018-04-07T08:39:27.442Z,3.70
2018-04-07T08:41:53.735Z,4.20
2018-04-07T08:44:20.056Z,4.00
2018-04-07T08:46:46.322Z,4.30
2018-04-07T08:49:12.615Z,4.13
2018-04-07T08:51:38.905Z,4.23
2018-04-07T08:54:05.931Z,4.40
2018-04-07T08:56:32.216Z,4.10
2018-04-07T08:58:58.582Z,3.73
2018-04-07T09:01:24.976Z,4.43
2018-04-07T09:03:51.264Z,4.53
2018-04-07T09:06:17.546Z,4.10
2018-04-07T09:08:43.795Z,5.10
2018-04-07T09:11:10.058Z,4.10
2018-04-07T09:13:36.310Z,4.30
2018-04-07T09:16:02.595Z,4.30
2018-04-07T09:18:28.880Z,4.23
2018-04-07T09:20:55.318Z,4.33
2018-04-07T09:23:21.619Z,4.47
2018-04-07T09:25:47.878Z,4.30
2018-04-07T09:28:14.139Z,4.17
2018-04-07T09:30:40.378Z,4.30
2018-04-07T09:33:07.388Z,4.23
2018-04-07T09:35:33.744Z,4.70
2018-04-07T09:38:00.065Z,4.27
2018-04-07T09:40:26.494Z,4.60
2018-04-07T09:42:52.789Z,4.30
2018-04-07T09:45:19.072Z,3.50
2018-04-07T09:47:45.345Z,4.33
2018-04-07T09:50:11.586Z,3.83
2018-04-07T09:52:37.878Z,4.40
2018-04-07T09:55:06.837Z,4.00
2018-04-07T09:57:34.770Z,4.47
2018-04-07T10:00:01.045Z,4.10
2018-04-07T10:02:33.405Z,4.30
2018-04-07T10:05:00.396Z,3.47
2018-04-07T10:07:26.878Z,3.80
2018-04-07T10:09:53.149Z,4.10
2018-04-07T10:12:19.628Z,3.83
2018-04-07T10:14:45.886Z,3.83
2018-04-07T10:17:17.260Z,3.80
2018-04-07T10:19:47.145Z,3.40
2018-04-07T10:22:14.938Z,3.67
2018-04-07T10:24:42.654Z,3.10
2018-04-07T10:27:08.732Z,3.40
2018-04-07T10:29:34.818Z,3.47
2018-04-07T10:32:01.002Z,3.07
2018-04-07T10:34:27.476Z,3.07
2018-04-07T10:36:54.012Z,2.77
2018-04-07T10:39:20.480Z,3.10
2018-04-07T10:41:46.749Z,2.97
2018-04-07T10:44:13.130Z,2.70
2018-04-07T10:46:39.415Z,3.10
2018-04-07T10:49:06.884Z,2.87
2018-04-07T10:51:33.266Z,2.90
2018-04-07T10:53:59.603Z,2.60
2018-04-07T10:56:26.033Z,3.00
2018-04-07T10:58:52.462Z,2.70
2018-04-07T11:01:18.737Z,3.10
2018-04-07T11:03:45.766Z,2.53
2018-04-07T11:06:12.116Z,3.67
2018-04-07T11:08:38.423Z,3.10
2018-04-07T11:11:04.729Z,2.80
2018-04-07T11:13:31.039Z,3.47
2018-04-07T11:15:57.487Z,3.47
2018-04-07T11:18:24.185Z,3.50
2018-04-07T11:20:50.638Z,2.90
2018-04-07T11:23:18.710Z,3.23
2018-04-07T11:25:44.973Z,2.93
2018-04-07T11:28:11.289Z,3.00
2018-04-07T11:30:37.594Z,3.63
2018-04-07T11:33:04.622Z,4.67
2018-04-07T11:35:30.925Z,2.97
2018-04-07T11:37:58.387Z,3.03
2018-04-07T11:40:25.118Z,3.17
2018-04-07T11:42:52.526Z,3.03
2018-04-07T11:45:19.582Z,2.90
2018-04-07T11:47:45.917Z,3.23
2018-04-07T11:50:12.231Z,3.00
2018-04-07T11:52:38.502Z,3.00
2018-04-07T11:55:04.794Z,2.53
2018-04-07T11:57:31.046Z,2.30
2018-04-07T11:59:57.319Z,2.90
2018-04-07T12:02:24.029Z,2.87
2018-04-07T12:04:50.148Z,2.90
2018-04-07T12:07:16.360Z,2.00
2018-04-07T12:09:42.482Z,2.43
2018-04-07T12:12:08.635Z,2.97
2018-04-07T12:14:34.718Z,3.10
2018-04-07T12:17:00.816Z,2.50
2018-04-07T12:19:27.291Z,3.17
2018-04-07T12:21:53.651Z,3.00
2018-04-07T12:24:20.013Z,3.40
2018-04-07T12:26:47.092Z,3.60
2018-04-07T12:29:13.342Z,2.63
2018-04-07T12:31:39.590Z,2.70
2018-04-07T12:34:05.876Z,2.70
2018-04-07T12:36:32.904Z,2.70
2018-04-07T12:38:59.262Z,3.47
2018-04-07T12:41:26.350Z,3.10
2018-04-07T12:43:52.642Z,2.67
2018-04-07T12:46:18.961Z,2.60
2018-04-07T12:48:45.355Z,2.67
2018-04-07T12:51:11.475Z,2.87
2018-04-07T12:53:37.699Z,2.80
2018-04-07T12:56:03.997Z,3.07
2018-04-07T12:58:31.012Z,3.10
2018-04-07T13:00:57.423Z,2.97
2018-04-07T13:03:23.736Z,3.03
2018-04-07T13:05:50.012Z,3.10
2018-04-07T13:08:16.259Z,2.90
2018-04-07T13:10:42.502Z,2.43
2018-04-07T13:13:09.143Z,3.40
2018-04-07T13:15:35.447Z,3.30
2018-04-07T13:18:01.696Z,2.70
2018-04-07T13:20:28.056Z,3.10
2018-04-07T13:22:54.456Z,3.40
2018-04-07T13:25:20.808Z,3.37
2018-04-07T13:27:47.913Z,2.50
2018-04-07T13:30:14.298Z,2.67
2018-04-07T13:32:40.605Z,3.47
2018-04-07T13:35:06.880Z,3.37
2018-04-07T13:37:33.164Z,2.60
2018-04-07T13:39:59.532Z,2.40
2018-04-07T13:42:25.965Z,2.80
2018-04-07T13:44:52.318Z,2.77
2018-04-07T13:47:18.673Z,2.67
2018-04-07T13:49:44.995Z,2.57
2018-04-07T13:52:11.290Z,2.67
2018-04-07T13:54:37.556Z,2.87
2018-04-07T13:57:03.873Z,2.40
2018-04-07T13:59:30.315Z,2.50
2018-04-07T14:01:56.721Z,2.37
2018-04-07T14:04:23.275Z,2.37
2018-04-07T14:06:49.540Z,1.77
2018-04-07T14:09:15.852Z,2.70
2018-04-07T14:11:42.134Z,2.33
2018-04-07T14:14:09.191Z,2.40
2018-04-07T14:16:35.498Z,2.10
2018-04-07T14:19:01.837Z,2.90
2018-04-07T14:21:28.284Z,2.20
2018-04-07T14:23:54.703Z,2.67
2018-04-07T14:26:21.706Z,2.50
2018-04-07T14:28:48.035Z,2.87
2018-04-07T14:31:14.323Z,2.60
2018-04-07T14:33:40.622Z,2.70
2018-04-07T14:36:06.918Z,2.20
2018-04-07T14:38:33.958Z,2.43
2018-04-07T14:41:00.304Z,2.57
2018-04-07T14:43:26.706Z,2.27
2018-04-07T14:45:53.033Z,2.77
2018-04-07T14:48:19.404Z,2.03
2018-04-07T14:50:46.531Z,2.80
2018-04-07T14:53:12.862Z,2.50
2018-04-07T14:55:39.894Z,2.70
2018-04-07T14:58:06.173Z,2.77
2018-04-07T15:00:32.491Z,2.17
2018-04-07T15:02:58.869Z,3.07
2018-04-07T15:05:25.332Z,2.60
2018-04-07T15:07:51.673Z,2.90
2018-04-07T15:10:17.984Z,3.13
2018-04-07T15:12:44.284Z,2.57
2018-04-07T15:15:12.375Z,3.80
2018-04-07T15:17:38.666Z,3.43
2018-04-07T15:20:04.966Z,2.60
2018-04-07T15:22:31.988Z,3.77
2018-04-07T15:24:58.328Z,3.37
2018-04-07T15:27:25.654Z,2.70
2018-04-07T15:29:51.994Z,3.10
2018-04-07T15:32:18.998Z,2.60
2018-04-07T15:34:45.310Z,3.90
2018-04-07T15:37:11.605Z,2.80
2018-04-07T15:39:37.871Z,2.60
2018-04-07T15:42:04.902Z,2.50
2018-04-07T15:44:31.170Z,3.13
2018-04-07T15:46:57.501Z,2.80
2018-04-07T15:49:24.599Z,2.73
2018-04-07T15:51:50.982Z,2.77
2018-04-07T15:54:17.293Z,2.97
2018-04-07T15:56:43.602Z,2.70
2018-04-07T15:59:09.854Z,3.63
2018-04-07T16:01:36.159Z,2.90
2018-04-07T16:04:02.656Z,3.63
2018-04-07T16:06:29.102Z,2.50
2018-04-07T16:08:55.630Z,2.90
2018-04-07T16:11:21.982Z,6.30
2018-04-07T16:13:48.454Z,4.43
2018-04-07T16:16:14.715Z,5.30
2018-04-07T16:18:41.808Z,5.03
2018-04-07T16:21:08.094Z,3.40
2018-04-07T16:23:34.387Z,3.00
2018-04-07T16:26:00.768Z,3.27
2018-04-07T16:28:27.195Z,3.17
2018-04-07T16:30:53.533Z,3.70
2018-04-07T16:33:19.893Z,3.97
2018-04-07T16:35:46.149Z,3.53
2018-04-07T16:38:12.421Z,4.07
2018-04-07T16:40:38.710Z,4.70
2018-04-07T16:43:04.914Z,4.43
2018-04-07T16:45:34.106Z,6.07
2018-04-07T16:48:00.746Z,6.70
2018-04-07T16:50:27.136Z,4.47
2018-04-07T16:52:53.432Z,3.20
2018-04-07T16:55:19.749Z,5.20
2018-04-07T16:57:46.050Z,4.40
2018-04-07T17:00:12.326Z,4.20
2018-04-07T17:02:38.588Z,3.67
2018-04-07T17:05:05.666Z,13.70
2018-04-07T17:07:31.927Z,9.40
2018-04-07T17:09:59.025Z,8.57
2018-04-07T17:12:25.406Z,9.70
2018-04-07T17:14:51.773Z,8.70
2018-04-07T17:17:18.226Z,7.47
2018-04-07T17:19:44.611Z,11.43
2018-04-07T17:22:10.866Z,8.73
2018-04-07T17:24:37.132Z,6.80
2018-04-07T17:27:03.381Z,4.47
2018-04-07T17:29:30.522Z,3.40
2018-04-07T17:31:56.964Z,3.70
2018-04-07T17:34:23.458Z,3.67
2018-04-07T17:36:49.876Z,3.60
2018-04-07T17:39:16.979Z,3.73
2018-04-07T17:41:43.328Z,4.83
2018-04-07T17:44:09.750Z,4.23
2018-04-07T17:46:38.754Z,3.30
2018-04-07T17:49:06.239Z,4.30
2018-04-07T17:51:32.117Z,3.33
2018-04-07T17:53:58.645Z,4.13
2018-04-07T17:56:25.042Z,3.90
2018-04-07T17:58:51.343Z,3.80
2018-04-07T18:01:21.431Z,3.90
2018-04-07T18:03:47.787Z,3.60
2018-04-07T18:06:14.091Z,3.60
2018-04-07T18:08:40.338Z,3.57
2018-04-07T18:11:06.626Z,3.03
2018-04-07T18:13:32.900Z,3.30
2018-04-07T18:16:00.110Z,3.40
2018-04-07T18:18:26.514Z,3.43
2018-04-07T18:20:53.548Z,2.93
2018-04-07T18:23:19.971Z,3.33
2018-04-07T18:25:46.986Z,4.67
2018-04-07T18:28:13.281Z,3.23
2018-04-07T18:30:39.564Z,3.40
2018-04-07T18:33:06.535Z,3.73
2018-04-07T18:35:32.794Z,3.40
2018-04-07T18:37:59.054Z,3.23
2018-04-07T18:40:30.882Z,3.83
2018-04-07T18:42:57.230Z,3.20
2018-04-07T18:45:23.514Z,3.20
2018-04-07T18:47:49.999Z,3.20
2018-04-07T18:50:17.106Z,3.40
2018-04-07T18:52:44.200Z,3.83
2018-04-07T18:55:10.558Z,3.90
2018-04-07T18:57:37.562Z,3.90
2018-04-07T19:00:04.679Z,3.87
2018-04-07T19:02:30.922Z,3.60
2018-04-07T19:04:58.090Z,4.03
2018-04-07T19:07:24.505Z,4.27
2018-04-07T19:09:51.658Z,3.87
2018-04-07T19:12:18.770Z,3.83
2018-04-07T19:14:45.119Z,4.33
2018-04-07T19:17:11.166Z,4.40
2018-04-07T19:19:37.454Z,4.20
2018-04-07T19:22:04.494Z,5.00
2018-04-07T19:24:30.626Z,7.10
2018-04-07T19:26:57.055Z,5.33
2018-04-07T19:29:24.240Z,5.20
2018-04-07T19:31:51.079Z,4.97
2018-04-07T19:34:17.182Z,5.90
2018-04-07T19:36:43.366Z,5.20
2018-04-07T19:39:09.499Z,5.50
2018-04-07T19:41:35.822Z,5.53
2018-04-07T19:44:02.046Z,6.20
2018-04-07T19:46:28.408Z,5.83
2018-04-07T19:48:54.870Z,5.27
2018-04-07T19:51:21.239Z,6.40
2018-04-07T19:53:48.290Z,5.90
2018-04-07T19:56:14.586Z,5.67
2018-04-07T19:58:40.880Z,6.70
2018-04-07T20:01:09.523Z,6.17
2018-04-07T20:03:36.085Z,6.00
2018-04-07T20:06:02.427Z,5.23
2018-04-07T20:08:28.771Z,5.43
2018-04-07T20:10:55.218Z,5.10
2018-04-07T20:13:21.598Z,4.70
2018-04-07T20:15:48.626Z,4.47
2018-04-07T20:18:15.090Z,4.13
2018-04-07T20:20:42.124Z,4.80
2018-04-07T20:23:08.413Z,4.60
2018-04-07T20:25:35.470Z,4.53
2018-04-07T20:28:01.634Z,4.73
2018-04-07T20:30:27.774Z,4.63
2018-04-07T20:32:54.281Z,4.90
2018-04-07T20:35:20.402Z,4.73
2018-04-07T20:37:46.491Z,4.00
2018-04-07T20:40:13.582Z,4.23
2018-04-07T20:42:39.657Z,4.57
2018-04-07T20:45:05.914Z,4.30
2018-04-07T20:47:32.318Z,4.93
2018-04-07T20:49:58.743Z,4.10
2018-04-07T20:52:25.087Z,4.63
2018-04-07T20:54:51.442Z,4.00
2018-04-07T20:57:18.761Z,4.40
2018-04-07T20:59:46.129Z,4.40
2018-04-07T21:02:12.212Z,4.20
2018-04-07T21:04:38.519Z,4.40
2018-04-07T21:07:04.855Z,4.40
2018-04-07T21:09:31.146Z,4.43
2018-04-07T21:11:58.544Z,4.80
2018-04-07T21:14:24.969Z,5.20
2018-04-07T21:16:51.213Z,5.30
2018-04-07T21:19:17.606Z,5.43
2018-04-07T21:21:44.034Z,5.13
2018-04-07T21:24:10.345Z,5.40
2018-04-07T21:26:36.778Z,5.00
2018-04-07T21:29:03.058Z,6.27
2018-04-07T21:31:30.215Z,5.00
2018-04-07T21:33:56.575Z,5.93
2018-04-07T21:36:23.502Z,5.37
2018-04-07T21:38:49.710Z,5.03
2018-04-07T21:41:16.074Z,4.47
2018-04-07T21:43:42.187Z,5.10
2018-04-07T21:46:08.259Z,5.10
2018-04-07T21:48:34.374Z,5.03
2018-04-07T21:51:01.218Z,5.33
2018-04-07T21:53:27.358Z,5.13
2018-04-07T21:55:54.338Z,4.70
2018-04-07T21:58:20.693Z,4.50
2018-04-07T22:00:47.078Z,5.00
2018-04-07T22:03:15.082Z,5.20
2018-04-07T22:05:41.930Z,4.90
2018-04-07T22:08:08.150Z,4.37
2018-04-07T22:10:34.381Z,4.70
2018-04-07T22:13:00.823Z,4.90
2018-04-07T22:15:27.404Z,4.30
2018-04-07T22:17:53.718Z,4.67
2018-04-07T22:20:20.034Z,4.83
2018-04-07T22:22:46.484Z,5.13
2018-04-07T22:25:13.598Z,4.60
2018-04-07T22:27:39.849Z,4.60
2018-04-07T22:30:06.879Z,5.13
2018-04-07T22:32:33.178Z,4.70
2018-04-07T22:34:59.566Z,4.77
2018-04-07T22:37:25.917Z,4.80
2018-04-07T22:39:52.184Z,4.73
2018-04-07T22:42:19.214Z,5.20
2018-04-07T22:44:45.502Z,4.73
2018-04-07T22:47:11.754Z,5.30
2018-04-07T22:49:38.018Z,5.53
2018-04-07T22:52:04.937Z,5.20
2018-04-07T22:54:31.209Z,5.40
2018-04-07T22:56:57.520Z,5.10
2018-04-07T22:59:23.846Z,5.03
2018-04-07T23:01:50.154Z,4.20
2018-04-07T23:04:16.406Z,4.30
2018-04-07T23:06:42.650Z,4.90
2018-04-07T23:09:08.966Z,4.60
2018-04-07T23:11:35.275Z,4.80
2018-04-07T23:14:01.598Z,4.23
2018-04-07T23:16:27.882Z,4.87
2018-04-07T23:18:55.309Z,4.40
2018-04-07T23:21:21.630Z,4.37
2018-04-07T23:23:47.904Z,4.27
2018-04-07T23:26:14.199Z,4.00
2018-04-07T23:28:40.483Z,4.57
2018-04-07T23:31:06.749Z,3.80
2018-04-07T23:33:33.036Z,4.60
2018-04-07T23:35:59.408Z,4.30
2018-04-07T23:38:25.815Z,4.30
2018-04-07T23:40:52.086Z,4.60
2018-04-07T23:43:19.102Z,4.60
2018-04-07T23:45:45.354Z,4.00
2018-04-07T23:48:11.610Z,4.90
2018-04-07T23:50:38.609Z,4.10
2018-04-07T23:53:04.854Z,4.50
2018-04-07T23:55:31.110Z,4.73
2018-04-07T23:57:57.513Z,4.50
